createdAt,value
2018-07-20T00:00:23.152Z,1009.44
2018-07-20T00:01:23.111Z,1009.38
2018-07-20T00:02:23.124Z,1009.38
2018-07-20T00:03:23.107Z,1009.38
2018-07-20T00:04:23.105Z,1009.37
2018-07-20T00:05:23.102Z,1009.35
2018-07-20T00:06:23.106Z,1009.36
2018-07-20T00:07:23.106Z,1009.36
2018-07-20T00:08:23.099Z,1009.38
2018-07-20T00:09:23.097Z,1009.35
2018-07-20T00:10:23.098Z,1009.32
2018-07-20T00:11:23.091Z,1009.37
2018-07-20T00:12:23.091Z,1009.37
2018-07-20T00:13:23.089Z,1009.36
2018-07-20T00:14:23.092Z,1009.32
2018-07-20T00:15:23.092Z,1009.30
2018-07-20T00:16:23.085Z,1009.30
2018-07-20T00:17:23.080Z,1009.30
2018-07-20T00:18:23.081Z,1009.32
2018-07-20T00:19:23.077Z,1009.33
2018-07-20T00:20:23.076Z,1009.33
2018-07-20T00:21:23.082Z,1009.34
2018-07-20T00:22:23.075Z,1009.32
2018-07-20T00:23:23.070Z,1009.32
2018-07-20T00:24:23.072Z,1009.33
2018-07-20T00:25:23.065Z,1009.29
2018-07-20T00:26:23.068Z,1009.29
2018-07-20T00:27:23.065Z,1009.30
2018-07-20T00:28:23.073Z,1009.28
2018-07-20T00:29:23.064Z,1009.28
2018-07-20T00:30:23.075Z,1009.29
2018-07-20T00:31:23.057Z,1009.25
2018-07-20T00:32:23.055Z,1009.24
2018-07-20T00:33:23.051Z,1009.23
2018-07-20T00:34:23.050Z,1009.24
2018-07-20T00:35:23.051Z,1009.22
2018-07-20T00:36:23.051Z,1009.21
2018-07-20T00:37:23.046Z,1009.21
2018-07-20T00:38:23.047Z,1009.17
2018-07-20T00:39:23.044Z,1009.18
2018-07-20T00:40:23.041Z,1009.16
2018-07-20T00:41:23.044Z,1009.16
2018-07-20T00:42:23.039Z,1009.16
2018-07-20T00:43:23.063Z,1009.15
2018-07-20T00:44:23.033Z,1009.12
2018-07-20T00:45:23.028Z,1009.10
2018-07-20T00:46:23.055Z,1009.11
2018-07-20T00:47:23.026Z,1009.04
2018-07-20T00:48:23.026Z,1009.05
2018-07-20T00:49:23.021Z,1009.06
2018-07-20T00:50:23.025Z,1009.00
2018-07-20T00:51:23.020Z,1009.02
2018-07-20T00:52:23.016Z,1008.97
2018-07-20T00:53:23.017Z,1008.97
2018-07-20T00:54:23.014Z,1008.95
2018-07-20T00:55:23.008Z,1008.94
2018-07-20T00:56:23.015Z,1008.90
2018-07-20T00:57:23.005Z,1008.88
2018-07-20T00:58:23.007Z,1008.89
2018-07-20T00:59:23.005Z,1008.86
2018-07-20T01:00:22.998Z,1008.87
2018-07-20T01:01:22.997Z,1008.92
2018-07-20T01:02:22.998Z,1008.87
2018-07-20T01:03:23.005Z,1008.89
2018-07-20T01:04:22.995Z,1008.88
2018-07-20T01:05:23.017Z,1008.88
2018-07-20T01:06:22.991Z,1008.84
2018-07-20T01:07:22.987Z,1008.82
2018-07-20T01:08:22.983Z,1008.78
2018-07-20T01:09:22.981Z,1008.78
2018-07-20T01:10:22.978Z,1008.79
2018-07-20T01:11:22.983Z,1008.77
2018-07-20T01:12:22.980Z,1008.76
2018-07-20T01:13:22.977Z,1008.74
2018-07-20T01:14:22.975Z,1008.74
2018-07-20T01:15:22.968Z,1008.70
2018-07-20T01:16:22.968Z,1008.72
2018-07-20T01:17:22.968Z,1008.75
2018-07-20T01:18:22.963Z,1008.76
2018-07-20T01:19:22.970Z,1008.75
2018-07-20T01:20:22.960Z,1008.78
2018-07-20T01:21:22.962Z,1008.74
2018-07-20T01:22:22.955Z,1008.76
2018-07-20T01:23:22.951Z,1008.76
2018-07-20T01:24:22.952Z,1008.73
2018-07-20T01:25:22.953Z,1008.71
2018-07-20T01:26:22.948Z,1008.73
2018-07-20T01:27:22.943Z,1008.70
2018-07-20T01:28:22.944Z,1008.72
2018-07-20T01:29:22.936Z,1008.73
2018-07-20T01:30:22.931Z,1008.70
2018-07-20T01:31:22.932Z,1008.67
2018-07-20T01:32:22.928Z,1008.68
2018-07-20T01:33:22.930Z,1008.71
2018-07-20T01:34:22.926Z,1008.74
2018-07-20T01:35:22.924Z,1008.74
2018-07-20T01:36:22.923Z,1008.71
2018-07-20T01:37:22.917Z,1008.74
2018-07-20T01:38:22.918Z,1008.73
2018-07-20T01:39:22.917Z,1008.73
2018-07-20T01:40:22.916Z,1008.76
2018-07-20T01:41:22.911Z,1008.76
2018-07-20T01:42:22.906Z,1008.77
2018-07-20T01:43:22.909Z,1008.72
2018-07-20T01:44:22.903Z,1008.73
2018-07-20T01:45:22.905Z,1008.70
2018-07-20T01:46:22.898Z,1008.73
2018-07-20T01:47:22.896Z,1008.74
2018-07-20T01:48:22.894Z,1008.74
2018-07-20T01:49:22.889Z,1008.73
2018-07-20T01:50:22.886Z,1008.71
2018-07-20T01:51:22.891Z,1008.72
2018-07-20T01:52:22.921Z,1008.70
2018-07-20T01:53:22.884Z,1008.69
2018-07-20T01:54:22.877Z,1008.69
2018-07-20T01:55:22.898Z,1008.69
2018-07-20T01:56:22.877Z,1008.70
2018-07-20T01:57:22.870Z,1008.71
2018-07-20T01:58:22.870Z,1008.67
2018-07-20T01:59:22.865Z,1008.71
2018-07-20T02:00:22.863Z,1008.69
2018-07-20T02:01:22.877Z,1008.69
2018-07-20T02:02:22.863Z,1008.70
2018-07-20T02:03:22.855Z,1008.69
2018-07-20T02:04:43.881Z,1008.73
2018-07-20T02:05:22.853Z,1008.73
2018-07-20T02:06:22.844Z,1008.69
2018-07-20T02:07:22.841Z,1008.68
2018-07-20T02:08:22.841Z,1008.69
2018-07-20T02:09:22.847Z,1008.69
2018-07-20T02:10:22.837Z,1008.70
2018-07-20T02:11:22.833Z,1008.69
2018-07-20T02:12:22.830Z,1008.67
2018-07-20T02:13:22.828Z,1008.65
2018-07-20T02:14:22.830Z,1008.63
2018-07-20T02:15:22.824Z,1008.65
2018-07-20T02:16:22.825Z,1008.62
2018-07-20T02:17:23.423Z,1008.62
2018-07-20T02:18:22.816Z,1008.62
2018-07-20T02:19:22.812Z,1008.64
2018-07-20T02:20:22.828Z,1008.63
2018-07-20T02:21:22.843Z,1008.62
2018-07-20T02:22:22.806Z,1008.61
2018-07-20T02:23:22.836Z,1008.62
2018-07-20T02:24:22.810Z,1008.63
2018-07-20T02:25:22.808Z,1008.60
2018-07-20T02:26:22.795Z,1008.58
2018-07-20T02:27:22.790Z,1008.58
2018-07-20T02:28:22.795Z,1008.58
2018-07-20T02:29:22.815Z,1008.57
2018-07-20T02:30:22.785Z,1008.53
2018-07-20T02:31:22.786Z,1008.52
2018-07-20T02:32:22.783Z,1008.50
2018-07-20T02:33:22.780Z,1008.52
2018-07-20T02:34:22.771Z,1008.50
2018-07-20T02:35:22.770Z,1008.51
2018-07-20T02:36:22.770Z,1008.47
2018-07-20T02:37:22.765Z,1008.49
2018-07-20T02:38:22.762Z,1008.46
2018-07-20T02:39:22.758Z,1008.48
2018-07-20T02:40:22.759Z,1008.45
2018-07-20T02:41:22.754Z,1008.46
2018-07-20T02:42:22.750Z,1008.42
2018-07-20T02:43:22.759Z,1008.42
2018-07-20T02:44:22.747Z,1008.39
2018-07-20T02:45:22.744Z,1008.37
2018-07-20T02:46:22.740Z,1008.38
2018-07-20T02:47:22.737Z,1008.37
2018-07-20T02:48:22.733Z,1008.36
2018-07-20T02:49:22.731Z,1008.36
2018-07-20T02:50:22.727Z,1008.38
2018-07-20T02:51:22.727Z,1008.42
2018-07-20T02:52:22.721Z,1008.41
2018-07-20T02:53:22.719Z,1008.36
2018-07-20T02:54:22.716Z,1008.37
2018-07-20T02:55:22.717Z,1008.37
2018-07-20T02:56:22.712Z,1008.31
2018-07-20T02:57:22.713Z,1008.36
2018-07-20T02:58:22.707Z,1008.34
2018-07-20T02:59:22.714Z,1008.36
2018-07-20T03:00:22.704Z,1008.38
2018-07-20T03:01:22.698Z,1008.38
2018-07-20T03:02:22.696Z,1008.39
2018-07-20T03:03:22.690Z,1008.35
2018-07-20T03:04:22.694Z,1008.32
2018-07-20T03:05:22.719Z,1008.35
2018-07-20T03:06:22.692Z,1008.35
2018-07-20T03:07:22.683Z,1008.35
2018-07-20T03:08:22.681Z,1008.35
2018-07-20T03:09:22.743Z,1008.30
2018-07-20T03:10:22.674Z,1008.32
2018-07-20T03:11:22.669Z,1008.32
2018-07-20T03:12:22.671Z,1008.27
2018-07-20T03:13:22.668Z,1008.34
2018-07-20T03:14:22.669Z,1008.32
2018-07-20T03:15:22.660Z,1008.33
2018-07-20T03:16:22.659Z,1008.31
2018-07-20T03:17:22.660Z,1008.30
2018-07-20T03:18:22.651Z,1008.30
2018-07-20T03:19:22.662Z,1008.29
2018-07-20T03:20:22.647Z,1008.33
2018-07-20T03:21:22.645Z,1008.30
2018-07-20T03:22:22.638Z,1008.28
2018-07-20T03:23:22.643Z,1008.27
2018-07-20T03:24:22.633Z,1008.28
2018-07-20T03:25:22.632Z,1008.28
2018-07-20T03:26:22.629Z,1008.29
2018-07-20T03:27:22.628Z,1008.26
2018-07-20T03:28:22.627Z,1008.33
2018-07-20T03:29:22.624Z,1008.26
2018-07-20T03:30:22.616Z,1008.27
2018-07-20T03:31:22.615Z,1008.31
2018-07-20T03:32:22.611Z,1008.30
2018-07-20T03:33:22.607Z,1008.28
2018-07-20T03:34:22.607Z,1008.26
2018-07-20T03:35:22.605Z,1008.25
2018-07-20T03:36:22.597Z,1008.25
2018-07-20T03:37:22.600Z,1008.24
2018-07-20T03:38:22.595Z,1008.22
2018-07-20T03:39:22.595Z,1008.22
2018-07-20T03:40:22.588Z,1008.27
2018-07-20T03:41:22.604Z,1008.26
2018-07-20T03:42:22.582Z,1008.22
2018-07-20T03:43:22.582Z,1008.24
2018-07-20T03:44:22.579Z,1008.22
2018-07-20T03:45:22.575Z,1008.25
2018-07-20T03:46:22.568Z,1008.25
2018-07-20T03:47:22.571Z,1008.27
2018-07-20T03:48:22.585Z,1008.24
2018-07-20T03:49:22.568Z,1008.24
2018-07-20T03:50:22.562Z,1008.22
2018-07-20T03:51:22.557Z,1008.21
2018-07-20T03:52:22.552Z,1008.21
2018-07-20T03:53:22.550Z,1008.16
2018-07-20T03:54:22.545Z,1008.15
2018-07-20T03:55:22.550Z,1008.15
2018-07-20T03:56:22.544Z,1008.17
2018-07-20T03:57:22.543Z,1008.18
2018-07-20T03:58:22.536Z,1008.13
2018-07-20T03:59:22.534Z,1008.17
2018-07-20T04:00:22.531Z,1008.12
2018-07-20T04:01:22.530Z,1008.14
2018-07-20T04:02:22.562Z,1008.10
2018-07-20T04:03:22.525Z,1008.13
2018-07-20T04:04:22.521Z,1008.10
2018-07-20T04:05:22.516Z,1008.13
2018-07-20T04:06:22.515Z,1008.16
2018-07-20T04:07:22.510Z,1008.15
2018-07-20T04:08:22.513Z,1008.17
2018-07-20T04:09:22.517Z,1008.16
2018-07-20T04:10:22.531Z,1008.13
2018-07-20T04:11:22.503Z,1008.12
2018-07-20T04:12:22.499Z,1008.12
2018-07-20T04:13:22.497Z,1008.10
2018-07-20T04:14:22.490Z,1008.08
2018-07-20T04:15:22.486Z,1008.11
2018-07-20T04:16:22.486Z,1008.07
2018-07-20T04:17:22.485Z,1008.06
2018-07-20T04:18:22.480Z,1008.06
2018-07-20T04:19:22.477Z,1008.07
2018-07-20T04:20:22.475Z,1008.06
2018-07-20T04:21:22.470Z,1008.11
2018-07-20T04:22:22.479Z,1008.10
2018-07-20T04:23:22.468Z,1008.14
2018-07-20T04:24:22.463Z,1008.13
2018-07-20T04:25:22.467Z,1008.12
2018-07-20T04:26:22.454Z,1008.11
2018-07-20T04:27:22.457Z,1008.08
2018-07-20T04:28:22.454Z,1008.12
2018-07-20T04:29:22.463Z,1008.08
2018-07-20T04:30:22.444Z,1008.03
2018-07-20T04:31:22.447Z,1008.08
2018-07-20T04:32:22.441Z,1008.07
2018-07-20T04:33:22.440Z,1008.05
2018-07-20T04:34:22.434Z,1008.08
2018-07-20T04:35:22.430Z,1008.08
2018-07-20T04:36:22.478Z,1008.03
2018-07-20T04:37:22.427Z,1008.03
2018-07-20T04:38:22.426Z,1007.98
2018-07-20T04:39:22.423Z,1007.99
2018-07-20T04:40:22.423Z,1007.97
2018-07-20T04:41:22.414Z,1007.94
2018-07-20T04:42:22.411Z,1007.98
2018-07-20T04:43:22.415Z,1008.02
2018-07-20T04:44:22.407Z,1008.03
2018-07-20T04:45:22.406Z,1008.02
2018-07-20T04:46:22.405Z,1008.04
2018-07-20T04:47:22.406Z,1008.05
2018-07-20T04:48:22.404Z,1008.05
2018-07-20T04:49:22.401Z,1008.04
2018-07-20T04:50:22.404Z,1008.08
2018-07-20T04:51:22.390Z,1008.08
2018-07-20T04:52:22.396Z,1008.10
2018-07-20T04:53:22.389Z,1008.10
2018-07-20T04:54:22.382Z,1008.13
2018-07-20T04:55:22.401Z,1008.15
2018-07-20T04:56:22.379Z,1008.13
2018-07-20T04:57:22.425Z,1008.14
2018-07-20T04:58:22.388Z,1008.14
2018-07-20T04:59:22.371Z,1008.16
2018-07-20T05:00:22.372Z,1008.16
2018-07-20T05:01:22.379Z,1008.13
2018-07-20T05:02:22.366Z,1008.11
2018-07-20T05:03:22.360Z,1008.12
2018-07-20T05:04:22.353Z,1008.16
2018-07-20T05:05:22.362Z,1008.12
2018-07-20T05:06:22.350Z,1008.13
2018-07-20T05:07:22.349Z,1008.09
2018-07-20T05:08:22.349Z,1008.12
2018-07-20T05:09:22.349Z,1008.11
2018-07-20T05:10:22.347Z,1008.07
2018-07-20T05:11:22.375Z,1008.12
2018-07-20T05:12:22.993Z,1008.10
2018-07-20T05:13:22.375Z,1008.10
2018-07-20T05:14:22.334Z,1008.08
2018-07-20T05:15:22.328Z,1008.05
2018-07-20T05:16:22.333Z,1008.03
2018-07-20T05:17:22.328Z,1008.05
2018-07-20T05:18:22.320Z,1008.00
2018-07-20T05:19:22.317Z,1008.02
2018-07-20T05:20:22.323Z,1008.03
2018-07-20T05:21:22.316Z,1008.02
2018-07-20T05:22:22.312Z,1008.01
2018-07-20T05:23:22.308Z,1008.00
2018-07-20T05:24:22.307Z,1008.00
2018-07-20T05:25:22.305Z,1008.01
2018-07-20T05:26:22.302Z,1007.99
2018-07-20T05:27:22.296Z,1007.97
2018-07-20T05:28:22.306Z,1007.98
2018-07-20T05:29:22.301Z,1008.03
2018-07-20T05:30:22.294Z,1008.03
2018-07-20T05:31:22.293Z,1008.00
2018-07-20T05:32:22.287Z,1008.01
2018-07-20T05:33:22.285Z,1008.04
2018-07-20T05:34:22.283Z,1008.00
2018-07-20T05:35:22.294Z,1008.02
2018-07-20T05:36:22.284Z,1008.01
2018-07-20T05:37:22.282Z,1008.03
2018-07-20T05:38:22.280Z,1007.98
2018-07-20T05:39:22.280Z,1007.99
2018-07-20T05:40:22.279Z,1007.99
2018-07-20T05:41:22.277Z,1008.00
2018-07-20T05:42:22.273Z,1008.01
2018-07-20T05:43:22.266Z,1008.00
2018-07-20T05:44:22.291Z,1008.02
2018-07-20T05:45:22.268Z,1008.02
2018-07-20T05:46:22.263Z,1007.98
2018-07-20T05:47:22.275Z,1008.00
2018-07-20T05:48:22.286Z,1008.06
2018-07-20T05:49:22.261Z,1008.08
2018-07-20T05:50:22.257Z,1008.07
2018-07-20T05:51:22.259Z,1008.04
2018-07-20T05:52:22.260Z,1008.06
2018-07-20T05:53:22.290Z,1008.05
2018-07-20T05:54:22.252Z,1007.99
2018-07-20T05:55:22.250Z,1008.05
2018-07-20T05:56:22.252Z,1008.05
2018-07-20T05:57:22.253Z,1008.07
2018-07-20T05:58:22.262Z,1008.06
2018-07-20T05:59:22.262Z,1008.01
2018-07-20T06:00:22.247Z,1008.04
2018-07-20T06:01:22.544Z,1008.04
2018-07-20T06:02:22.251Z,1008.01
2018-07-20T06:03:22.263Z,1008.04
2018-07-20T06:04:22.253Z,1008.05
2018-07-20T06:05:22.254Z,1008.04
2018-07-20T06:06:22.250Z,1008.03
2018-07-20T06:07:22.254Z,1008.04
2018-07-20T06:08:22.250Z,1008.01
2018-07-20T06:09:22.252Z,1008.02
2018-07-20T06:10:22.263Z,1008.06
2018-07-20T06:11:22.253Z,1008.06
2018-07-20T06:12:22.261Z,1008.03
2018-07-20T06:13:22.277Z,1008.05
2018-07-20T06:14:22.252Z,1008.03
2018-07-20T06:15:22.277Z,1008.03
2018-07-20T06:16:22.287Z,1008.04
2018-07-20T06:17:22.268Z,1008.07
2018-07-20T06:18:22.258Z,1008.10
2018-07-20T06:19:22.261Z,1008.12
2018-07-20T06:20:22.259Z,1008.03
2018-07-20T06:21:22.261Z,1008.06
2018-07-20T06:22:22.265Z,1008.09
2018-07-20T06:23:22.264Z,1008.09
2018-07-20T06:24:22.264Z,1008.10
2018-07-20T06:25:22.265Z,1008.05
2018-07-20T06:26:22.267Z,1008.08
2018-07-20T06:27:22.272Z,1008.07
2018-07-20T06:28:22.267Z,1008.07
2018-07-20T06:29:22.266Z,1008.04
2018-07-20T06:30:22.272Z,1008.09
2018-07-20T06:31:22.270Z,1008.04
2018-07-20T06:32:22.285Z,1008.07
2018-07-20T06:33:22.285Z,1008.03
2018-07-20T06:34:22.280Z,1008.06
2018-07-20T06:35:22.279Z,1008.02
2018-07-20T06:36:22.281Z,1008.06
2018-07-20T06:37:22.280Z,1008.05
2018-07-20T06:38:22.290Z,1008.07
2018-07-20T06:39:22.291Z,1008.00
2018-07-20T06:40:22.286Z,1008.03
2018-07-20T06:41:22.287Z,1007.99
2018-07-20T06:42:22.291Z,1007.99
2018-07-20T06:43:22.294Z,1007.98
2018-07-20T06:44:22.292Z,1008.01
2018-07-20T06:45:22.303Z,1008.03
2018-07-20T06:46:22.297Z,1008.02
2018-07-20T06:47:22.296Z,1008.01
2018-07-20T06:48:22.299Z,1008.00
2018-07-20T06:49:22.302Z,1007.99
2018-07-20T06:50:22.300Z,1007.99
2018-07-20T06:51:22.303Z,1008.02
2018-07-20T06:52:23.048Z,1008.01
2018-07-20T06:53:22.308Z,1008.02
2018-07-20T06:54:22.312Z,1008.04
2018-07-20T06:55:22.314Z,1008.05
2018-07-20T06:56:22.313Z,1007.97
2018-07-20T06:57:22.316Z,1008.04
2018-07-20T06:58:22.318Z,1008.04
2018-07-20T06:59:22.318Z,1008.03
2018-07-20T07:00:22.317Z,1008.04
2018-07-20T07:01:22.323Z,1008.03
2018-07-20T07:02:22.322Z,1008.04
2018-07-20T07:03:22.327Z,1008.03
2018-07-20T07:04:22.329Z,1008.03
2018-07-20T07:05:22.336Z,1008.03
2018-07-20T07:06:22.341Z,1008.00
2018-07-20T07:07:22.337Z,1008.00
2018-07-20T07:08:22.342Z,1008.02
2018-07-20T07:09:22.346Z,1008.04
2018-07-20T07:10:22.342Z,1008.04
2018-07-20T07:11:22.346Z,1008.04
2018-07-20T07:12:22.351Z,1008.03
2018-07-20T07:13:23.065Z,1008.04
2018-07-20T07:14:22.363Z,1008.04
2018-07-20T07:15:22.355Z,1008.04
2018-07-20T07:16:22.365Z,1008.04
2018-07-20T07:17:22.366Z,1008.00
2018-07-20T07:18:22.374Z,1008.05
2018-07-20T07:19:22.371Z,1008.00
2018-07-20T07:20:23.071Z,1008.02
2018-07-20T07:22:16.132Z,1007.96
2018-07-20T07:23:16.069Z,1007.99
2018-07-20T07:25:09.916Z,1008.02
2018-07-20T07:26:09.601Z,1008.01
2018-07-20T07:27:09.573Z,1008.03
2018-07-20T07:28:09.580Z,1008.02
2018-07-20T07:29:09.624Z,1008.03
2018-07-20T07:31:03.287Z,1008.05
2018-07-20T07:32:03.256Z,1008.07
2018-07-20T07:33:56.864Z,1008.07
2018-07-20T07:34:56.852Z,1008.10
2018-07-20T07:36:50.581Z,1008.04
2018-07-20T07:37:50.541Z,1008.04
2018-07-20T07:39:44.155Z,1008.06
2018-07-20T07:40:44.144Z,1008.04
2018-07-20T07:42:37.827Z,1008.03
2018-07-20T07:43:37.814Z,1007.99
2018-07-20T07:44:37.811Z,1007.98
2018-07-20T07:45:37.807Z,1008.01
2018-07-20T07:46:37.823Z,1008.03
2018-07-20T07:47:37.841Z,1007.98
2018-07-20T07:48:37.822Z,1007.96
2018-07-20T07:49:37.834Z,1007.97
2018-07-20T07:50:37.832Z,1007.99
2018-07-20T07:51:37.838Z,1007.99
2018-07-20T07:52:37.868Z,1007.97
2018-07-20T07:53:37.851Z,1007.99
2018-07-20T07:54:37.857Z,1007.99
2018-07-20T07:55:37.864Z,1008.02
2018-07-20T07:56:37.865Z,1008.01
2018-07-20T07:57:37.874Z,1007.99
2018-07-20T07:58:37.889Z,1008.02
2018-07-20T07:59:37.885Z,1008.01
2018-07-20T08:00:38.587Z,1008.03
2018-07-20T08:01:37.898Z,1008.02
2018-07-20T08:02:38.596Z,1008.01
2018-07-20T08:03:37.977Z,1008.02
2018-07-20T08:04:37.945Z,1007.97
2018-07-20T08:05:37.929Z,1007.98
2018-07-20T08:06:37.972Z,1007.98
2018-07-20T08:07:37.986Z,1007.97
2018-07-20T08:08:37.983Z,1007.98
2018-07-20T08:09:37.988Z,1007.94
2018-07-20T08:10:37.975Z,1007.94
2018-07-20T08:11:37.980Z,1007.95
2018-07-20T08:12:37.979Z,1007.94
2018-07-20T08:13:37.982Z,1007.92
2018-07-20T08:14:38.003Z,1007.96
2018-07-20T08:15:38.007Z,1007.93
2018-07-20T08:16:38.014Z,1007.87
2018-07-20T08:17:38.011Z,1007.88
2018-07-20T08:18:38.019Z,1007.87
2018-07-20T08:19:38.030Z,1007.84
2018-07-20T08:20:38.030Z,1007.83
2018-07-20T08:21:38.040Z,1007.85
2018-07-20T08:22:38.046Z,1007.81
2018-07-20T08:23:38.052Z,1007.81
2018-07-20T08:24:38.059Z,1007.81
2018-07-20T08:25:38.069Z,1007.77
2018-07-20T08:26:38.079Z,1007.80
2018-07-20T08:27:38.086Z,1007.79
2018-07-20T08:28:38.106Z,1007.80
2018-07-20T08:29:38.103Z,1007.76
2018-07-20T08:30:38.117Z,1007.79
2018-07-20T08:31:38.123Z,1007.81
2018-07-20T08:32:38.125Z,1007.82
2018-07-20T08:33:38.143Z,1007.83
2018-07-20T08:34:38.145Z,1007.81
2018-07-20T08:35:38.153Z,1007.80
2018-07-20T08:36:39.120Z,1007.79
2018-07-20T08:37:38.168Z,1007.78
2018-07-20T08:38:38.194Z,1007.78
2018-07-20T08:39:38.204Z,1007.78
2018-07-20T08:40:38.196Z,1007.82
2018-07-20T08:41:38.204Z,1007.77
2018-07-20T08:42:38.222Z,1007.79
2018-07-20T08:43:38.224Z,1007.78
2018-07-20T08:44:38.229Z,1007.70
2018-07-20T08:45:38.275Z,1007.75
2018-07-20T08:46:38.316Z,1007.74
2018-07-20T08:47:38.259Z,1007.72
2018-07-20T08:48:38.290Z,1007.74
2018-07-20T08:49:38.276Z,1007.67
2018-07-20T08:50:38.284Z,1007.65
2018-07-20T08:51:38.298Z,1007.70
2018-07-20T08:52:38.310Z,1007.68
2018-07-20T08:53:38.315Z,1007.68
2018-07-20T08:54:38.320Z,1007.70
2018-07-20T08:55:38.330Z,1007.62
2018-07-20T08:56:38.339Z,1007.68
2018-07-20T08:57:38.359Z,1007.68
2018-07-20T08:58:40.124Z,1007.64
2018-07-20T08:59:38.373Z,1007.68
2018-07-20T09:00:38.376Z,1007.69
2018-07-20T09:01:38.389Z,1007.68
2018-07-20T09:02:38.400Z,1007.69
2018-07-20T09:03:38.453Z,1007.65
2018-07-20T09:04:38.414Z,1007.66
2018-07-20T09:05:38.424Z,1007.68
2018-07-20T09:06:38.452Z,1007.63
2018-07-20T09:07:38.444Z,1007.62
2018-07-20T09:08:38.452Z,1007.58
2018-07-20T09:09:38.466Z,1007.58
2018-07-20T09:10:38.472Z,1007.59
2018-07-20T09:11:39.137Z,1007.57
2018-07-20T09:12:39.144Z,1007.59
2018-07-20T09:13:38.590Z,1007.56
2018-07-20T09:14:38.517Z,1007.61
2018-07-20T09:15:38.535Z,1007.56
2018-07-20T09:16:38.539Z,1007.56
2018-07-20T09:17:38.547Z,1007.58
2018-07-20T09:18:38.556Z,1007.54
2018-07-20T09:19:38.567Z,1007.54
2018-07-20T09:20:38.606Z,1007.52
2018-07-20T09:21:38.594Z,1007.47
2018-07-20T09:22:38.601Z,1007.47
2018-07-20T09:23:38.609Z,1007.47
2018-07-20T09:24:38.618Z,1007.43
2018-07-20T09:25:38.627Z,1007.47
2018-07-20T09:26:38.651Z,1007.45
2018-07-20T09:27:38.657Z,1007.45
2018-07-20T09:28:38.665Z,1007.39
2018-07-20T09:29:38.671Z,1007.41
2018-07-20T09:30:38.680Z,1007.42
2018-07-20T09:31:38.694Z,1007.40
2018-07-20T09:32:38.703Z,1007.41
2018-07-20T09:33:38.714Z,1007.41
2018-07-20T09:34:38.726Z,1007.40
2018-07-20T09:35:40.668Z,1007.38
2018-07-20T09:36:38.752Z,1007.40
2018-07-20T09:37:38.760Z,1007.37
2018-07-20T09:38:38.774Z,1007.39
2018-07-20T09:39:38.812Z,1007.37
2018-07-20T09:40:38.812Z,1007.39
2018-07-20T09:41:38.801Z,1007.40
2018-07-20T09:42:38.839Z,1007.33
2018-07-20T09:43:38.828Z,1007.37
2018-07-20T09:44:38.836Z,1007.38
2018-07-20T09:45:38.858Z,1007.37
2018-07-20T09:46:38.863Z,1007.39
2018-07-20T09:47:38.881Z,1007.42
2018-07-20T09:48:38.898Z,1007.42
2018-07-20T09:49:38.899Z,1007.38
2018-07-20T09:50:38.912Z,1007.36
2018-07-20T09:51:38.923Z,1007.44
2018-07-20T09:52:38.932Z,1007.42
2018-07-20T09:53:38.943Z,1007.44
2018-07-20T09:54:38.959Z,1007.41
2018-07-20T09:55:38.969Z,1007.38
2018-07-20T09:56:38.979Z,1007.35
2018-07-20T09:57:38.999Z,1007.37
2018-07-20T09:58:39.007Z,1007.37
2018-07-20T09:59:39.149Z,1007.32
2018-07-20T10:00:39.030Z,1007.33
2018-07-20T10:01:39.049Z,1007.34
2018-07-20T10:02:39.055Z,1007.32
2018-07-20T10:03:39.070Z,1007.30
2018-07-20T10:04:39.084Z,1007.31
2018-07-20T10:05:39.094Z,1007.29
2018-07-20T10:06:39.116Z,1007.30
2018-07-20T10:07:39.126Z,1007.24
2018-07-20T10:08:39.134Z,1007.25
2018-07-20T10:09:39.148Z,1007.24
2018-07-20T10:10:39.159Z,1007.24
2018-07-20T10:11:39.174Z,1007.26
2018-07-20T10:12:39.221Z,1007.25
2018-07-20T10:13:39.196Z,1007.24
2018-07-20T10:14:39.217Z,1007.22
2018-07-20T10:15:39.225Z,1007.21
2018-07-20T10:16:39.250Z,1007.22
2018-07-20T10:17:39.259Z,1007.20
2018-07-20T10:18:39.263Z,1007.22
2018-07-20T10:19:39.281Z,1007.20
2018-07-20T10:20:39.292Z,1007.18
2018-07-20T10:21:39.334Z,1007.19
2018-07-20T10:22:39.317Z,1007.17
2018-07-20T10:23:39.338Z,1007.14
2018-07-20T10:24:39.347Z,1007.14
2018-07-20T10:25:39.408Z,1007.12
2018-07-20T10:26:39.378Z,1007.13
2018-07-20T10:27:39.391Z,1007.14
2018-07-20T10:28:39.402Z,1007.14
2018-07-20T10:29:39.415Z,1007.13
2018-07-20T10:30:39.462Z,1007.14
2018-07-20T10:31:39.459Z,1007.13
2018-07-20T10:32:39.456Z,1007.20
2018-07-20T10:33:39.474Z,1007.18
2018-07-20T10:34:39.484Z,1007.19
2018-07-20T10:35:39.502Z,1007.20
2018-07-20T10:36:39.556Z,1007.14
2018-07-20T10:37:39.519Z,1007.14
2018-07-20T10:38:39.537Z,1007.16
2018-07-20T10:39:39.547Z,1007.15
2018-07-20T10:40:39.565Z,1007.12
2018-07-20T10:41:39.573Z,1007.12
2018-07-20T10:42:39.586Z,1007.11
2018-07-20T10:43:39.599Z,1007.12
2018-07-20T10:44:39.614Z,1007.15
2018-07-20T10:45:39.629Z,1007.11
2018-07-20T10:46:39.636Z,1007.12
2018-07-20T10:47:39.650Z,1007.09
2018-07-20T10:48:39.662Z,1007.11
2018-07-20T10:49:39.673Z,1007.11
2018-07-20T10:50:39.714Z,1007.09
2018-07-20T10:51:39.701Z,1007.06
2018-07-20T10:52:39.717Z,1007.06
2018-07-20T10:53:39.727Z,1007.04
2018-07-20T10:54:39.759Z,1007.10
2018-07-20T10:55:39.764Z,1007.05
2018-07-20T10:56:39.767Z,1007.06
2018-07-20T10:57:39.776Z,1007.10
2018-07-20T10:58:39.797Z,1007.04
2018-07-20T10:59:39.806Z,1007.02
2018-07-20T11:00:39.820Z,1007.05
2018-07-20T11:01:39.850Z,1006.97
2018-07-20T11:02:39.843Z,1006.99
2018-07-20T11:03:39.857Z,1006.94
2018-07-20T11:04:39.867Z,1006.93
2018-07-20T11:05:39.875Z,1006.93
2018-07-20T11:06:39.890Z,1006.90
2018-07-20T11:07:39.904Z,1006.90
2018-07-20T11:08:39.911Z,1006.87
2018-07-20T11:09:39.924Z,1006.92
2018-07-20T11:10:39.934Z,1006.89
2018-07-20T11:11:39.947Z,1006.87
2018-07-20T11:12:39.955Z,1006.86
2018-07-20T11:13:40.013Z,1006.88
2018-07-20T11:14:39.982Z,1006.86
2018-07-20T11:15:39.986Z,1006.88
2018-07-20T11:16:40.007Z,1006.88
2018-07-20T11:17:40.014Z,1006.96
2018-07-20T11:18:40.024Z,1006.90
2018-07-20T11:19:40.041Z,1006.92
2018-07-20T11:20:40.043Z,1006.87
2018-07-20T11:21:40.052Z,1006.89
2018-07-20T11:22:40.067Z,1006.90
2018-07-20T11:23:40.072Z,1006.88
2018-07-20T11:24:40.089Z,1006.85
2018-07-20T11:25:40.101Z,1006.88
2018-07-20T11:26:40.108Z,1006.85
2018-07-20T11:27:40.118Z,1006.85
2018-07-20T11:28:40.125Z,1006.85
2018-07-20T11:29:40.140Z,1006.81
2018-07-20T11:30:40.159Z,1006.78
2018-07-20T11:31:40.176Z,1006.77
2018-07-20T11:32:40.177Z,1006.80
2018-07-20T11:33:40.185Z,1006.80
2018-07-20T11:34:40.210Z,1006.74
2018-07-20T11:35:40.213Z,1006.76
2018-07-20T11:36:40.221Z,1006.76
2018-07-20T11:37:40.236Z,1006.75
2018-07-20T11:38:40.244Z,1006.73
2018-07-20T11:39:40.268Z,1006.72
2018-07-20T11:40:40.272Z,1006.72
2018-07-20T11:41:40.280Z,1006.66
2018-07-20T11:42:40.325Z,1006.65
2018-07-20T11:43:40.306Z,1006.67
2018-07-20T11:44:40.315Z,1006.67
2018-07-20T11:45:40.331Z,1006.65
2018-07-20T11:46:40.342Z,1006.68
2018-07-20T11:47:40.350Z,1006.65
2018-07-20T11:48:40.368Z,1006.63
2018-07-20T11:49:40.376Z,1006.62
2018-07-20T11:50:40.380Z,1006.59
2018-07-20T11:51:40.403Z,1006.59
2018-07-20T11:52:40.424Z,1006.58
2018-07-20T11:53:40.415Z,1006.58
2018-07-20T11:54:40.425Z,1006.55
2018-07-20T11:55:40.449Z,1006.48
2018-07-20T11:56:40.456Z,1006.53
2018-07-20T11:57:40.458Z,1006.55
2018-07-20T11:58:40.468Z,1006.54
2018-07-20T11:59:40.477Z,1006.53
2018-07-20T12:00:40.488Z,1006.50
2018-07-20T12:01:41.240Z,1006.50
2018-07-20T12:02:40.506Z,1006.48
2018-07-20T12:03:40.522Z,1006.41
2018-07-20T12:04:40.552Z,1006.38
2018-07-20T12:05:40.539Z,1006.43
2018-07-20T12:06:40.551Z,1006.44
2018-07-20T12:07:40.560Z,1006.49
2018-07-20T12:08:40.567Z,1006.42
2018-07-20T12:09:40.574Z,1006.46
2018-07-20T12:10:40.584Z,1006.46
2018-07-20T12:11:40.593Z,1006.41